sensor_id;sensor_type;location;lat;lon;timestamp;P1;durP1;ratioP1;P2;durP2;ratioP2
19877;SDS011;10101;52.204;9.910;2023-06-26T00:01:40;7.65;;;5.95;;
19877;SDS011;10101;52.204;9.910;2023-06-26T00:04:07;6.53;;;5.78;;
19877;SDS011;10101;52.204;9.910;2023-06-26T00:06:39;6.70;;;5.10;;
19877;SDS011;10101;52.204;9.910;2023-06-26T00:09:06;7.70;;;5.65;;
19877;SDS011;10101;52.204;9.910;2023-06-26T00:11:33;6.78;;;5.00;;
19877;SDS011;10101;52.204;9.910;2023-06-26T00:14:00;5.75;;;5.07;;
19877;SDS011;10101;52.204;9.910;2023-06-26T00:16:29;6.38;;;5.28;;
19877;SDS011;10101;52.204;9.910;2023-06-26T00:18:56;5.78;;;4.93;;
19877;SDS011;10101;52.204;9.910;2023-06-26T00:21:23;5.72;;;4.60;;
19877;SDS011;10101;52.204;9.910;2023-06-26T00:23:50;6.43;;;4.60;;
19877;SDS011;10101;52.204;9.910;2023-06-26T00:26:17;7.15;;;4.70;;
19877;SDS011;10101;52.204;9.910;2023-06-26T00:28:44;5.45;;;4.50;;
19877;SDS011;10101;52.204;9.910;2023-06-26T00:31:11;5.22;;;4.57;;
19877;SDS011;10101;52.204;9.910;2023-06-26T00:33:39;5.30;;;4.80;;
19877;SDS011;10101;52.204;9.910;2023-06-26T00:36:06;6.25;;;4.97;;
19877;SDS011;10101;52.204;9.910;2023-06-26T00:38:32;5.83;;;4.40;;
19877;SDS011;10101;52.204;9.910;2023-06-26T00:40:59;5.18;;;4.53;;
19877;SDS011;10101;52.204;9.910;2023-06-26T00:43:26;6.97;;;4.90;;
19877;SDS011;10101;52.204;9.910;2023-06-26T00:45:52;6.10;;;3.95;;
19877;SDS011;10101;52.204;9.910;2023-06-26T00:48:19;6.10;;;4.50;;
19877;SDS011;10101;52.204;9.910;2023-06-26T00:50:47;5.30;;;4.30;;
19877;SDS011;10101;52.204;9.910;2023-06-26T00:53:14;5.18;;;4.32;;
19877;SDS011;10101;52.204;9.910;2023-06-26T00:55:41;4.37;;;3.90;;
19877;SDS011;10101;52.204;9.910;2023-06-26T00:58:07;8.33;;;4.70;;
19877;SDS011;10101;52.204;9.910;2023-06-26T01:00:34;6.45;;;4.35;;
19877;SDS011;10101;52.204;9.910;2023-06-26T01:03:01;5.70;;;4.43;;
19877;SDS011;10101;52.204;9.910;2023-06-26T01:05:28;4.97;;;4.03;;
19877;SDS011;10101;52.204;9.910;2023-06-26T01:07:57;6.07;;;4.30;;
19877;SDS011;10101;52.204;9.910;2023-06-26T01:10:24;7.05;;;3.92;;
19877;SDS011;10101;52.204;9.910;2023-06-26T01:12:52;9.10;;;4.17;;
19877;SDS011;10101;52.204;9.910;2023-06-26T01:15:19;4.70;;;4.10;;
19877;SDS011;10101;52.204;9.910;2023-06-26T01:17:46;7.70;;;3.90;;
19877;SDS011;10101;52.204;9.910;2023-06-26T01:20:13;8.97;;;4.00;;
19877;SDS011;10101;52.204;9.910;2023-06-26T01:22:43;5.63;;;3.93;;
19877;SDS011;10101;52.204;9.910;2023-06-26T01:25:17;6.10;;;4.20;;
19877;SDS011;10101;52.204;9.910;2023-06-26T01:27:56;4.53;;;3.80;;
19877;SDS011;10101;52.204;9.910;2023-06-26T01:30:24;7.93;;;4.30;;
19877;SDS011;10101;52.204;9.910;2023-06-26T01:32:52;6.60;;;3.90;;
19877;SDS011;10101;52.204;9.910;2023-06-26T01:35:18;7.73;;;4.13;;
19877;SDS011;10101;52.204;9.910;2023-06-26T01:37:46;6.83;;;4.13;;
19877;SDS011;10101;52.204;9.910;2023-06-26T01:40:12;5.83;;;3.97;;
19877;SDS011;10101;52.204;9.910;2023-06-26T01:42:39;6.00;;;4.10;;
19877;SDS011;10101;52.204;9.910;2023-06-26T01:45:10;5.30;;;4.20;;
19877;SDS011;10101;52.204;9.910;2023-06-26T01:47:43;6.73;;;4.17;;
19877;SDS011;10101;52.204;9.910;2023-06-26T01:50:17;6.37;;;4.13;;
19877;SDS011;10101;52.204;9.910;2023-06-26T01:52:49;9.27;;;3.90;;
19877;SDS011;10101;52.204;9.910;2023-06-26T01:55:23;5.93;;;3.83;;
19877;SDS011;10101;52.204;9.910;2023-06-26T01:57:55;8.00;;;3.87;;
19877;SDS011;10101;52.204;9.910;2023-06-26T02:00:25;5.40;;;3.83;;
19877;SDS011;10101;52.204;9.910;2023-06-26T02:02:52;4.97;;;3.67;;
19877;SDS011;10101;52.204;9.910;2023-06-26T02:05:19;5.13;;;3.97;;
19877;SDS011;10101;52.204;9.910;2023-06-26T02:07:46;5.23;;;4.00;;
19877;SDS011;10101;52.204;9.910;2023-06-26T02:10:13;8.00;;;4.27;;
19877;SDS011;10101;52.204;9.910;2023-06-26T02:12:40;6.63;;;4.00;;
19877;SDS011;10101;52.204;9.910;2023-06-26T02:15:07;4.93;;;3.80;;
19877;SDS011;10101;52.204;9.910;2023-06-26T02:17:36;5.93;;;3.97;;
19877;SDS011;10101;52.204;9.910;2023-06-26T02:20:03;4.97;;;3.70;;
19877;SDS011;10101;52.204;9.910;2023-06-26T02:22:34;6.40;;;4.00;;
19877;SDS011;10101;52.204;9.910;2023-06-26T02:25:01;5.37;;;3.90;;
19877;SDS011;10101;52.204;9.910;2023-06-26T02:27:27;5.77;;;3.90;;
19877;SDS011;10101;52.204;9.910;2023-06-26T02:29:54;6.50;;;4.00;;
19877;SDS011;10101;52.204;9.910;2023-06-26T02:32:21;9.77;;;3.60;;
19877;SDS011;10101;52.204;9.910;2023-06-26T02:34:49;4.87;;;3.93;;
19877;SDS011;10101;52.204;9.910;2023-06-26T02:37:16;6.27;;;3.57;;
19877;SDS011;10101;52.204;9.910;2023-06-26T02:39:43;8.07;;;3.70;;
19877;SDS011;10101;52.204;9.910;2023-06-26T02:42:10;8.83;;;4.20;;
19877;SDS011;10101;52.204;9.910;2023-06-26T02:44:36;8.40;;;4.27;;
19877;SDS011;10101;52.204;9.910;2023-06-26T02:47:03;5.57;;;4.10;;
19877;SDS011;10101;52.204;9.910;2023-06-26T02:49:30;9.90;;;4.20;;
19877;SDS011;10101;52.204;9.910;2023-06-26T02:51:58;7.40;;;4.13;;
19877;SDS011;10101;52.204;9.910;2023-06-26T02:54:25;10.40;;;4.03;;
19877;SDS011;10101;52.204;9.910;2023-06-26T02:56:52;5.60;;;3.90;;
19877;SDS011;10101;52.204;9.910;2023-06-26T02:59:19;6.87;;;4.50;;
19877;SDS011;10101;52.204;9.910;2023-06-26T03:01:46;5.63;;;4.10;;
19877;SDS011;10101;52.204;9.910;2023-06-26T03:04:12;7.57;;;4.33;;
19877;SDS011;10101;52.204;9.910;2023-06-26T03:06:40;5.97;;;3.87;;
19877;SDS011;10101;52.204;9.910;2023-06-26T03:09:09;6.87;;;3.90;;
19877;SDS011;10101;52.204;9.910;2023-06-26T03:11:35;6.93;;;4.00;;
19877;SDS011;10101;52.204;9.910;2023-06-26T03:14:02;6.27;;;3.90;;
19877;SDS011;10101;52.204;9.910;2023-06-26T03:16:29;5.97;;;3.87;;
19877;SDS011;10101;52.204;9.910;2023-06-26T03:18:56;6.67;;;3.80;;
19877;SDS011;10101;52.204;9.910;2023-06-26T03:21:22;5.90;;;3.97;;
19877;SDS011;10101;52.204;9.910;2023-06-26T03:23:49;5.77;;;3.70;;
19877;SDS011;10101;52.204;9.910;2023-06-26T03:26:17;7.43;;;4.40;;
19877;SDS011;10101;52.204;9.910;2023-06-26T03:28:44;7.20;;;4.07;;
19877;SDS011;10101;52.204;9.910;2023-06-26T03:31:10;5.73;;;4.47;;
19877;SDS011;10101;52.204;9.910;2023-06-26T03:33:37;5.07;;;3.70;;
19877;SDS011;10101;52.204;9.910;2023-06-26T03:36:04;6.33;;;3.97;;
19877;SDS011;10101;52.204;9.910;2023-06-26T03:38:32;5.37;;;4.03;;
19877;SDS011;10101;52.204;9.910;2023-06-26T03:40:58;5.03;;;3.73;;
19877;SDS011;10101;52.204;9.910;2023-06-26T03:43:26;4.33;;;3.70;;
19877;SDS011;10101;52.204;9.910;2023-06-26T03:45:53;8.03;;;4.10;;
19877;SDS011;10101;52.204;9.910;2023-06-26T03:48:20;5.00;;;3.63;;
19877;SDS011;10101;52.204;9.910;2023-06-26T03:50:47;6.50;;;3.90;;
19877;SDS011;10101;52.204;9.910;2023-06-26T03:53:14;4.07;;;3.23;;
19877;SDS011;10101;52.204;9.910;2023-06-26T03:55:41;5.67;;;4.20;;
19877;SDS011;10101;52.204;9.910;2023-06-26T03:58:07;8.17;;;4.03;;
19877;SDS011;10101;52.204;9.910;2023-06-26T04:00:35;4.93;;;3.77;;
19877;SDS011;10101;52.204;9.910;2023-06-26T04:03:02;4.10;;;3.47;;
19877;SDS011;10101;52.204;9.910;2023-06-26T04:05:29;5.87;;;3.80;;
19877;SDS011;10101;52.204;9.910;2023-06-26T04:07:56;6.13;;;3.93;;
19877;SDS011;10101;52.204;9.910;2023-06-26T04:10:23;5.53;;;3.83;;
19877;SDS011;10101;52.204;9.910;2023-06-26T04:12:49;6.93;;;4.03;;
19877;SDS011;10101;52.204;9.910;2023-06-26T04:15:16;6.40;;;3.90;;
19877;SDS011;10101;52.204;9.910;2023-06-26T04:17:44;5.57;;;3.83;;
19877;SDS011;10101;52.204;9.910;2023-06-26T04:20:11;5.27;;;3.87;;
19877;SDS011;10101;52.204;9.910;2023-06-26T04:22:39;7.53;;;4.17;;
19877;SDS011;10101;52.204;9.910;2023-06-26T04:25:07;4.77;;;4.00;;
19877;SDS011;10101;52.204;9.910;2023-06-26T04:27:34;7.83;;;3.70;;
19877;SDS011;10101;52.204;9.910;2023-06-26T04:30:01;7.43;;;3.90;;
19877;SDS011;10101;52.204;9.910;2023-06-26T04:32:28;4.93;;;3.70;;
19877;SDS011;10101;52.204;9.910;2023-06-26T04:34:56;4.80;;;3.83;;
19877;SDS011;10101;52.204;9.910;2023-06-26T04:37:23;4.43;;;3.70;;
19877;SDS011;10101;52.204;9.910;2023-06-26T04:39:50;6.07;;;3.90;;
19877;SDS011;10101;52.204;9.910;2023-06-26T04:42:17;4.57;;;3.97;;
19877;SDS011;10101;52.204;9.910;2023-06-26T04:44:46;5.43;;;3.90;;
19877;SDS011;10101;52.204;9.910;2023-06-26T04:47:13;4.83;;;3.90;;
19877;SDS011;10101;52.204;9.910;2023-06-26T04:49:41;4.97;;;3.35;;
19877;SDS011;10101;52.204;9.910;2023-06-26T04:52:12;4.70;;;3.40;;
19877;SDS011;10101;52.204;9.910;2023-06-26T04:54:39;8.90;;;3.90;;
19877;SDS011;10101;52.204;9.910;2023-06-26T04:57:06;4.15;;;3.40;;
19877;SDS011;10101;52.204;9.910;2023-06-26T04:59:34;3.92;;;3.53;;
19877;SDS011;10101;52.204;9.910;2023-06-26T05:02:00;4.70;;;3.53;;
19877;SDS011;10101;52.204;9.910;2023-06-26T05:04:27;7.43;;;3.80;;
19877;SDS011;10101;52.204;9.910;2023-06-26T05:06:54;5.30;;;3.90;;
19877;SDS011;10101;52.204;9.910;2023-06-26T05:09:22;4.38;;;3.67;;
19877;SDS011;10101;52.204;9.910;2023-06-26T05:11:48;4.63;;;3.70;;
19877;SDS011;10101;52.204;9.910;2023-06-26T05:14:15;3.85;;;3.22;;
19877;SDS011;10101;52.204;9.910;2023-06-26T05:16:42;5.97;;;4.05;;
19877;SDS011;10101;52.204;9.910;2023-06-26T05:19:09;6.18;;;3.80;;
19877;SDS011;10101;52.204;9.910;2023-06-26T05:21:35;5.22;;;3.65;;
19877;SDS011;10101;52.204;9.910;2023-06-26T05:24:02;4.90;;;3.83;;
19877;SDS011;10101;52.204;9.910;2023-06-26T05:26:32;4.40;;;3.63;;
19877;SDS011;10101;52.204;9.910;2023-06-26T05:28:59;4.80;;;3.70;;
19877;SDS011;10101;52.204;9.910;2023-06-26T05:31:27;4.38;;;3.67;;
19877;SDS011;10101;52.204;9.910;2023-06-26T05:33:55;4.65;;;3.50;;
19877;SDS011;10101;52.204;9.910;2023-06-26T05:36:23;4.45;;;3.60;;
19877;SDS011;10101;52.204;9.910;2023-06-26T05:38:51;4.18;;;3.35;;
19877;SDS011;10101;52.204;9.910;2023-06-26T05:41:18;3.67;;;3.30;;
19877;SDS011;10101;52.204;9.910;2023-06-26T05:43:46;5.00;;;3.55;;
19877;SDS011;10101;52.204;9.910;2023-06-26T05:46:13;4.00;;;3.60;;
19877;SDS011;10101;52.204;9.910;2023-06-26T05:48:40;3.85;;;3.45;;
19877;SDS011;10101;52.204;9.910;2023-06-26T05:51:07;4.13;;;3.13;;
19877;SDS011;10101;52.204;9.910;2023-06-26T05:53:35;5.00;;;3.35;;
19877;SDS011;10101;52.204;9.910;2023-06-26T05:56:02;3.38;;;2.97;;
19877;SDS011;10101;52.204;9.910;2023-06-26T05:58:29;3.40;;;3.08;;
19877;SDS011;10101;52.204;9.910;2023-06-26T06:00:58;4.15;;;3.20;;
19877;SDS011;10101;52.204;9.910;2023-06-26T06:03:24;4.38;;;3.10;;
19877;SDS011;10101;52.204;9.910;2023-06-26T06:05:51;5.65;;;3.13;;
19877;SDS011;10101;52.204;9.910;2023-06-26T06:08:18;4.63;;;3.80;;
19877;SDS011;10101;52.204;9.910;2023-06-26T06:10:45;4.05;;;3.20;;
19877;SDS011;10101;52.204;9.910;2023-06-26T06:13:12;4.15;;;3.67;;
19877;SDS011;10101;52.204;9.910;2023-06-26T06:15:39;5.45;;;3.88;;
19877;SDS011;10101;52.204;9.910;2023-06-26T06:18:08;4.80;;;3.67;;
19877;SDS011;10101;52.204;9.910;2023-06-26T06:20:35;5.13;;;3.90;;
19877;SDS011;10101;52.204;9.910;2023-06-26T06:23:01;5.45;;;3.70;;
19877;SDS011;10101;52.204;9.910;2023-06-26T06:25:28;5.70;;;3.15;;
19877;SDS011;10101;52.204;9.910;2023-06-26T06:27:55;5.95;;;3.60;;
19877;SDS011;10101;52.204;9.910;2023-06-26T06:30:22;7.80;;;3.88;;
19877;SDS011;10101;52.204;9.910;2023-06-26T06:32:48;5.70;;;3.78;;
19877;SDS011;10101;52.204;9.910;2023-06-26T06:35:18;6.05;;;3.67;;
19877;SDS011;10101;52.204;9.910;2023-06-26T06:37:45;3.95;;;3.40;;
19877;SDS011;10101;52.204;9.910;2023-06-26T06:40:12;3.95;;;3.55;;
19877;SDS011;10101;52.204;9.910;2023-06-26T06:42:39;4.63;;;3.90;;
19877;SDS011;10101;52.204;9.910;2023-06-26T06:45:06;4.88;;;3.65;;
19877;SDS011;10101;52.204;9.910;2023-06-26T06:47:33;4.93;;;3.75;;
19877;SDS011;10101;52.204;9.910;2023-06-26T06:50:00;4.40;;;3.50;;
19877;SDS011;10101;52.204;9.910;2023-06-26T06:52:34;5.45;;;3.80;;
19877;SDS011;10101;52.204;9.910;2023-06-26T06:55:01;4.00;;;3.53;;
19877;SDS011;10101;52.204;9.910;2023-06-26T06:57:31;4.57;;;4.00;;
19877;SDS011;10101;52.204;9.910;2023-06-26T07:00:01;4.57;;;3.67;;
19877;SDS011;10101;52.204;9.910;2023-06-26T07:02:29;5.10;;;3.80;;
19877;SDS011;10101;52.204;9.910;2023-06-26T07:04:56;3.88;;;3.47;;
19877;SDS011;10101;52.204;9.910;2023-06-26T07:07:22;5.32;;;3.45;;
19877;SDS011;10101;52.204;9.910;2023-06-26T07:09:50;7.60;;;3.92;;
19877;SDS011;10101;52.204;9.910;2023-06-26T07:12:17;3.90;;;3.50;;
19877;SDS011;10101;52.204;9.910;2023-06-26T07:14:44;3.92;;;3.42;;
19877;SDS011;10101;52.204;9.910;2023-06-26T07:17:10;9.98;;;4.30;;
19877;SDS011;10101;52.204;9.910;2023-06-26T07:19:37;7.70;;;4.00;;
19877;SDS011;10101;52.204;9.910;2023-06-26T07:22:04;5.88;;;3.85;;
19877;SDS011;10101;52.204;9.910;2023-06-26T07:24:30;5.68;;;4.10;;
19877;SDS011;10101;52.204;9.910;2023-06-26T07:26:59;5.25;;;4.00;;
19877;SDS011;10101;52.204;9.910;2023-06-26T07:29:26;4.18;;;3.78;;
19877;SDS011;10101;52.204;9.910;2023-06-26T07:31:53;4.10;;;3.70;;
19877;SDS011;10101;52.204;9.910;2023-06-26T07:34:20;4.22;;;3.80;;
19877;SDS011;10101;52.204;9.910;2023-06-26T07:36:47;6.50;;;4.10;;
19877;SDS011;10101;52.204;9.910;2023-06-26T07:39:13;5.53;;;3.80;;
19877;SDS011;10101;52.204;9.910;2023-06-26T07:41:40;5.78;;;4.30;;
19877;SDS011;10101;52.204;9.910;2023-06-26T07:44:08;5.25;;;3.80;;
19877;SDS011;10101;52.204;9.910;2023-06-26T07:46:35;4.65;;;3.88;;
19877;SDS011;10101;52.204;9.910;2023-06-26T07:49:01;4.80;;;4.30;;
19877;SDS011;10101;52.204;9.910;2023-06-26T07:51:28;6.60;;;4.03;;
19877;SDS011;10101;52.204;9.910;2023-06-26T07:53:55;4.70;;;4.00;;
19877;SDS011;10101;52.204;9.910;2023-06-26T07:56:23;5.97;;;4.40;;
19877;SDS011;10101;52.204;9.910;2023-06-26T07:58:49;6.88;;;4.30;;
19877;SDS011;10101;52.204;9.910;2023-06-26T08:01:17;6.30;;;4.03;;
19877;SDS011;10101;52.204;9.910;2023-06-26T08:03:44;5.10;;;3.88;;
19877;SDS011;10101;52.204;9.910;2023-06-26T08:06:11;4.70;;;4.20;;
19877;SDS011;10101;52.204;9.910;2023-06-26T08:08:37;5.38;;;4.22;;
19877;SDS011;10101;52.204;9.910;2023-06-26T08:11:05;5.60;;;4.35;;
19877;SDS011;10101;52.204;9.910;2023-06-26T08:13:31;7.25;;;4.63;;
19877;SDS011;10101;52.204;9.910;2023-06-26T08:15:58;5.75;;;3.95;;
19877;SDS011;10101;52.204;9.910;2023-06-26T08:18:26;4.93;;;4.20;;
19877;SDS011;10101;52.204;9.910;2023-06-26T08:20:53;4.75;;;3.90;;
19877;SDS011;10101;52.204;9.910;2023-06-26T08:23:19;4.88;;;4.38;;
19877;SDS011;10101;52.204;9.910;2023-06-26T08:25:47;5.43;;;4.03;;
19877;SDS011;10101;52.204;9.910;2023-06-26T08:28:13;4.93;;;3.90;;
19877;SDS011;10101;52.204;9.910;2023-06-26T08:30:40;8.35;;;3.92;;
19877;SDS011;10101;52.204;9.910;2023-06-26T08:33:07;7.18;;;4.45;;
19877;SDS011;10101;52.204;9.910;2023-06-26T08:35:38;5.57;;;4.57;;
19877;SDS011;10101;52.204;9.910;2023-06-26T08:38:05;4.40;;;3.83;;
19877;SDS011;10101;52.204;9.910;2023-06-26T08:40:34;7.90;;;4.75;;
19877;SDS011;10101;52.204;9.910;2023-06-26T08:43:01;4.88;;;4.18;;
19877;SDS011;10101;52.204;9.910;2023-06-26T08:45:29;7.90;;;4.93;;
19877;SDS011;10101;52.204;9.910;2023-06-26T08:47:56;5.35;;;4.25;;
19877;SDS011;10101;52.204;9.910;2023-06-26T08:50:27;6.00;;;4.72;;
19877;SDS011;10101;52.204;9.910;2023-06-26T08:52:59;6.25;;;4.78;;
19877;SDS011;10101;52.204;9.910;2023-06-26T08:55:33;5.82;;;5.00;;
19877;SDS011;10101;52.204;9.910;2023-06-26T08:58:03;6.93;;;4.32;;
19877;SDS011;10101;52.204;9.910;2023-06-26T09:00:31;6.63;;;4.60;;
19877;SDS011;10101;52.204;9.910;2023-06-26T09:02:58;6.50;;;4.70;;
19877;SDS011;10101;52.204;9.910;2023-06-26T09:05:25;6.35;;;4.43;;
19877;SDS011;10101;52.204;9.910;2023-06-26T09:07:53;8.85;;;4.80;;
19877;SDS011;10101;52.204;9.910;2023-06-26T09:10:21;5.72;;;4.82;;
19877;SDS011;10101;52.204;9.910;2023-06-26T09:12:48;4.97;;;4.43;;
19877;SDS011;10101;52.204;9.910;2023-06-26T09:15:15;4.97;;;4.43;;
19877;SDS011;10101;52.204;9.910;2023-06-26T09:17:45;5.75;;;4.65;;
19877;SDS011;10101;52.204;9.910;2023-06-26T09:20:14;7.07;;;4.70;;
19877;SDS011;10101;52.204;9.910;2023-06-26T09:22:41;7.25;;;4.80;;
19877;SDS011;10101;52.204;9.910;2023-06-26T09:25:09;5.63;;;5.10;;
19877;SDS011;10101;52.204;9.910;2023-06-26T09:27:37;6.40;;;5.03;;
19877;SDS011;10101;52.204;9.910;2023-06-26T09:30:05;5.55;;;4.97;;
19877;SDS011;10101;52.204;9.910;2023-06-26T09:32:33;6.80;;;4.97;;
19877;SDS011;10101;52.204;9.910;2023-06-26T09:35:01;7.28;;;5.72;;
19877;SDS011;10101;52.204;9.910;2023-06-26T09:37:29;7.57;;;5.25;;
19877;SDS011;10101;52.204;9.910;2023-06-26T09:39:55;8.18;;;5.10;;
19877;SDS011;10101;52.204;9.910;2023-06-26T09:42:22;9.38;;;5.57;;
19877;SDS011;10101;52.204;9.910;2023-06-26T09:44:51;7.80;;;5.40;;
19877;SDS011;10101;52.204;9.910;2023-06-26T09:47:19;6.68;;;5.50;;
19877;SDS011;10101;52.204;9.910;2023-06-26T09:49:47;10.38;;;5.82;;
19877;SDS011;10101;52.204;9.910;2023-06-26T09:52:14;7.38;;;5.50;;
19877;SDS011;10101;52.204;9.910;2023-06-26T09:54:42;10.10;;;5.40;;
19877;SDS011;10101;52.204;9.910;2023-06-26T09:57:10;6.97;;;5.10;;
19877;SDS011;10101;52.204;9.910;2023-06-26T09:59:37;6.55;;;4.78;;
19877;SDS011;10101;52.204;9.910;2023-06-26T10:02:06;8.13;;;5.65;;
19877;SDS011;10101;52.204;9.910;2023-06-26T10:04:34;6.78;;;5.47;;
19877;SDS011;10101;52.204;9.910;2023-06-26T10:07:01;10.35;;;6.10;;
19877;SDS011;10101;52.204;9.910;2023-06-26T10:09:32;12.65;;;5.65;;
19877;SDS011;10101;52.204;9.910;2023-06-26T10:12:01;9.32;;;4.65;;
19877;SDS011;10101;52.204;9.910;2023-06-26T10:14:31;8.50;;;4.90;;
19877;SDS011;10101;52.204;9.910;2023-06-26T10:17:01;5.88;;;4.63;;
19877;SDS011;10101;52.204;9.910;2023-06-26T10:19:33;5.97;;;4.53;;
19877;SDS011;10101;52.204;9.910;2023-06-26T10:22:01;7.70;;;4.90;;
19877;SDS011;10101;52.204;9.910;2023-06-26T10:24:31;5.70;;;5.10;;
19877;SDS011;10101;52.204;9.910;2023-06-26T10:27:02;10.70;;;5.30;;
19877;SDS011;10101;52.204;9.910;2023-06-26T10:29:30;8.13;;;5.78;;
19877;SDS011;10101;52.204;9.910;2023-06-26T10:31:58;8.80;;;6.32;;
19877;SDS011;10101;52.204;9.910;2023-06-26T10:34:29;10.68;;;6.32;;
19877;SDS011;10101;52.204;9.910;2023-06-26T10:37:08;9.68;;;6.00;;
19877;SDS011;10101;52.204;9.910;2023-06-26T10:39:47;9.20;;;6.28;;
19877;SDS011;10101;52.204;9.910;2023-06-26T10:42:15;7.60;;;6.40;;
19877;SDS011;10101;52.204;9.910;2023-06-26T10:44:44;8.38;;;6.22;;
19877;SDS011;10101;52.204;9.910;2023-06-26T10:47:13;10.00;;;7.15;;
19877;SDS011;10101;52.204;9.910;2023-06-26T10:49:55;8.73;;;6.88;;
19877;SDS011;10101;52.204;9.910;2023-06-26T10:52:23;10.25;;;7.40;;
19877;SDS011;10101;52.204;9.910;2023-06-26T10:54:54;11.07;;;7.20;;
19877;SDS011;10101;52.204;9.910;2023-06-26T10:57:23;10.57;;;7.38;;
19877;SDS011;10101;52.204;9.910;2023-06-26T10:59:55;10.00;;;7.63;;
19877;SDS011;10101;52.204;9.910;2023-06-26T11:02:47;9.52;;;7.40;;
19877;SDS011;10101;52.204;9.910;2023-06-26T11:05:22;11.90;;;7.47;;
19877;SDS011;10101;52.204;9.910;2023-06-26T11:08:04;9.07;;;6.40;;
19877;SDS011;10101;52.204;9.910;2023-06-26T11:10:51;8.82;;;5.80;;
19877;SDS011;10101;52.204;9.910;2023-06-26T11:13:19;9.18;;;5.28;;
19877;SDS011;10101;52.204;9.910;2023-06-26T11:15:46;8.02;;;5.20;;
19877;SDS011;10101;52.204;9.910;2023-06-26T11:18:14;9.23;;;5.22;;
19877;SDS011;10101;52.204;9.910;2023-06-26T11:20:41;7.90;;;5.43;;
19877;SDS011;10101;52.204;9.910;2023-06-26T11:23:09;7.60;;;4.93;;
19877;SDS011;10101;52.204;9.910;2023-06-26T11:25:37;6.30;;;5.20;;
19877;SDS011;10101;52.204;9.910;2023-06-26T11:28:05;8.32;;;5.13;;
19877;SDS011;10101;52.204;9.910;2023-06-26T11:30:32;6.55;;;5.05;;
19877;SDS011;10101;52.204;9.910;2023-06-26T11:33:02;8.15;;;5.72;;
19877;SDS011;10101;52.204;9.910;2023-06-26T11:35:30;11.25;;;5.90;;
19877;SDS011;10101;52.204;9.910;2023-06-26T11:37:56;9.55;;;5.82;;
19877;SDS011;10101;52.204;9.910;2023-06-26T11:40:26;8.20;;;6.03;;
19877;SDS011;10101;52.204;9.910;2023-06-26T11:42:56;11.05;;;5.68;;
19877;SDS011;10101;52.204;9.910;2023-06-26T11:45:24;8.15;;;6.07;;
19877;SDS011;10101;52.204;9.910;2023-06-26T11:47:51;9.43;;;5.97;;
19877;SDS011;10101;52.204;9.910;2023-06-26T11:50:18;9.88;;;5.75;;
19877;SDS011;10101;52.204;9.910;2023-06-26T11:52:44;10.05;;;5.60;;
19877;SDS011;10101;52.204;9.910;2023-06-26T11:55:11;7.78;;;5.88;;
19877;SDS011;10101;52.204;9.910;2023-06-26T11:57:40;7.95;;;5.50;;
19877;SDS011;10101;52.204;9.910;2023-06-26T12:00:12;9.40;;;6.60;;
19877;SDS011;10101;52.204;9.910;2023-06-26T12:02:40;8.18;;;5.93;;
19877;SDS011;10101;52.204;9.910;2023-06-26T12:05:08;9.02;;;5.78;;
19877;SDS011;10101;52.204;9.910;2023-06-26T12:07:35;10.93;;;6.30;;
19877;SDS011;10101;52.204;9.910;2023-06-26T12:10:02;9.52;;;6.07;;
19877;SDS011;10101;52.204;9.910;2023-06-26T12:12:31;11.73;;;6.28;;
19877;SDS011;10101;52.204;9.910;2023-06-26T12:15:00;9.65;;;6.60;;
19877;SDS011;10101;52.204;9.910;2023-06-26T12:17:27;8.95;;;5.57;;
19877;SDS011;10101;52.204;9.910;2023-06-26T12:19:54;11.30;;;6.60;;
19877;SDS011;10101;52.204;9.910;2023-06-26T12:22:21;10.77;;;6.30;;
19877;SDS011;10101;52.204;9.910;2023-06-26T12:24:47;8.88;;;6.75;;
19877;SDS011;10101;52.204;9.910;2023-06-26T12:27:15;10.65;;;6.97;;
19877;SDS011;10101;52.204;9.910;2023-06-26T12:29:46;10.23;;;6.38;;
19877;SDS011;10101;52.204;9.910;2023-06-26T12:32:17;9.32;;;6.20;;
19877;SDS011;10101;52.204;9.910;2023-06-26T12:34:47;7.07;;;4.70;;
19877;SDS011;10101;52.204;9.910;2023-06-26T12:37:15;6.93;;;3.90;;
19877;SDS011;10101;52.204;9.910;2023-06-26T12:39:45;6.13;;;4.10;;
19877;SDS011;10101;52.204;9.910;2023-06-26T12:42:13;5.32;;;3.33;;
19877;SDS011;10101;52.204;9.910;2023-06-26T12:44:41;7.00;;;3.58;;
19877;SDS011;10101;52.204;9.910;2023-06-26T12:47:07;7.13;;;3.42;;
19877;SDS011;10101;52.204;9.910;2023-06-26T12:49:37;4.07;;;2.95;;
19877;SDS011;10101;52.204;9.910;2023-06-26T12:52:04;8.10;;;2.80;;
19877;SDS011;10101;52.204;9.910;2023-06-26T12:54:33;5.45;;;2.90;;
19877;SDS011;10101;52.204;9.910;2023-06-26T12:57:00;6.50;;;3.10;;
19877;SDS011;10101;52.204;9.910;2023-06-26T12:59:28;4.80;;;3.35;;
19877;SDS011;10101;52.204;9.910;2023-06-26T13:01:55;7.90;;;3.40;;
19877;SDS011;10101;52.204;9.910;2023-06-26T13:04:22;7.25;;;3.05;;
19877;SDS011;10101;52.204;9.910;2023-06-26T13:06:50;7.43;;;3.45;;
19877;SDS011;10101;52.204;9.910;2023-06-26T13:09:19;4.18;;;3.03;;
19877;SDS011;10101;52.204;9.910;2023-06-26T13:11:46;4.90;;;3.13;;
19877;SDS011;10101;52.204;9.910;2023-06-26T13:14:13;3.60;;;2.78;;
19877;SDS011;10101;52.204;9.910;2023-06-26T13:16:40;3.70;;;2.63;;
19877;SDS011;10101;52.204;9.910;2023-06-26T13:19:07;6.38;;;2.75;;
19877;SDS011;10101;52.204;9.910;2023-06-26T13:21:34;4.57;;;2.88;;
19877;SDS011;10101;52.204;9.910;2023-06-26T13:24:03;6.35;;;3.05;;
19877;SDS011;10101;52.204;9.910;2023-06-26T13:26:30;5.10;;;2.40;;
19877;SDS011;10101;52.204;9.910;2023-06-26T13:28:58;3.80;;;2.30;;
19877;SDS011;10101;52.204;9.910;2023-06-26T13:31:24;2.80;;;2.30;;
19877;SDS011;10101;52.204;9.910;2023-06-26T13:33:51;3.03;;;2.30;;
19877;SDS011;10101;52.204;9.910;2023-06-26T13:36:19;3.25;;;2.00;;
19877;SDS011;10101;52.204;9.910;2023-06-26T13:38:46;4.55;;;2.47;;
19877;SDS011;10101;52.204;9.910;2023-06-26T13:41:16;3.60;;;2.25;;
19877;SDS011;10101;52.204;9.910;2023-06-26T13:43:44;2.92;;;2.45;;
19877;SDS011;10101;52.204;9.910;2023-06-26T13:46:11;4.97;;;2.42;;
19877;SDS011;10101;52.204;9.910;2023-06-26T13:48:38;4.00;;;2.50;;
19877;SDS011;10101;52.204;9.910;2023-06-26T13:51:04;6.05;;;2.28;;
19877;SDS011;10101;52.204;9.910;2023-06-26T13:53:31;8.07;;;2.60;;
19877;SDS011;10101;52.204;9.910;2023-06-26T13:55:58;3.25;;;2.13;;
19877;SDS011;10101;52.204;9.910;2023-06-26T13:58:26;3.85;;;2.00;;
19877;SDS011;10101;52.204;9.910;2023-06-26T14:00:57;4.00;;;2.20;;
19877;SDS011;10101;52.204;9.910;2023-06-26T14:03:24;4.07;;;2.03;;
19877;SDS011;10101;52.204;9.910;2023-06-26T14:05:52;2.65;;;2.03;;
19877;SDS011;10101;52.204;9.910;2023-06-26T14:08:19;4.68;;;2.00;;
19877;SDS011;10101;52.204;9.910;2023-06-26T14:10:46;3.50;;;1.83;;
19877;SDS011;10101;52.204;9.910;2023-06-26T14:13:13;4.05;;;2.08;;
19877;SDS011;10101;52.204;9.910;2023-06-26T14:15:42;4.63;;;1.85;;
19877;SDS011;10101;52.204;9.910;2023-06-26T14:18:09;5.45;;;1.83;;
19877;SDS011;10101;52.204;9.910;2023-06-26T14:20:36;2.65;;;1.77;;
19877;SDS011;10101;52.204;9.910;2023-06-26T14:23:03;1.95;;;1.60;;
19877;SDS011;10101;52.204;9.910;2023-06-26T14:25:29;3.83;;;1.77;;
19877;SDS011;10101;52.204;9.910;2023-06-26T14:27:56;3.60;;;2.30;;
19877;SDS011;10101;52.204;9.910;2023-06-26T14:30:24;4.65;;;2.20;;
19877;SDS011;10101;52.204;9.910;2023-06-26T14:32:52;2.83;;;1.83;;
19877;SDS011;10101;52.204;9.910;2023-06-26T14:35:18;3.63;;;1.70;;
19877;SDS011;10101;52.204;9.910;2023-06-26T14:37:45;2.28;;;1.80;;
19877;SDS011;10101;52.204;9.910;2023-06-26T14:40:14;2.75;;;2.00;;
19877;SDS011;10101;52.204;9.910;2023-06-26T14:42:40;2.72;;;1.73;;
19877;SDS011;10101;52.204;9.910;2023-06-26T14:45:08;4.78;;;1.80;;
19877;SDS011;10101;52.204;9.910;2023-06-26T14:47:36;2.35;;;1.80;;
19877;SDS011;10101;52.204;9.910;2023-06-26T14:50:04;3.40;;;1.65;;
19877;SDS011;10101;52.204;9.910;2023-06-26T14:52:32;6.78;;;2.00;;